Startpagina
METAR-TAF:

METAR-TAF

Vliegvelden :

Luchthaven Larnaca

Larnaca, Cyprus

breedte: 34-53N, lengte: 033-38E, hoogte: 2 m

Actueel weer

Dit bericht is 16 minuten geleden gemaakt, om 11:00 UTC
Wind 11 kt uit het zuiden
Temperatuur 33°C
Vochtigheid 36%
Druk 1010 hPa
Zicht 10 km of meer
Weinig wolken op 3500 ft

METAR: LCLK 191100Z 18011KT 9999 FEW035 33/16 Q1010 NOSIG

Tijdstip: 14:16 (11:16 UTC)

Verwachting

Dit bericht is 5 uur en het 46 minuten geleden gemaakt, om 05:30 UTC
Verwachting geldig van 19 om 06 UTC tot 20 om 06 UTC
Wind 7 kt uit het oosten
Zicht 10 km of meer
Weinig wolken op 3000 ft
Wijzigt naar
van 19 om 08 UTC tot 19 om 11 UTC
Wind 12 kt uit het zuidzuidwesten
Wijzigt naar
van 19 om 16 UTC tot 19 om 19 UTC
Wind 7 kt uit het noordwesten

TAF: LCLK 190530Z 1906/2006 09007KT 9999 FEW030 BECMG 1908/1911 20012KT BECMG 1916/1919 31007KT

Waarnemingen en weersverwachtingen van meer dan 4000 vliegvelden (METAR en TAF).

De beschikbare stations zijn de gele en rode punten op de kaart.

Ga met uw muis naar het station om de naam te zien.

Klik dan om waarnemingen en weersverwachtingen te zien.

kaart wijzigen: klik op de groene knoppen met een zwart kruis om in te zoomen, op de groene knop met een streepje om uit te zoomen of op de groene pijlen voor aangrenzende kaarten.


METAR-TAF: